KENW

Kenosha Regional Airport

Kenosha, Wisconsin, USA
METAR KENW 151253Z 30012KT 8SM -SN OVC024 M04/M09 A2988 RMK AO2 SNB39 SLP131 P0000 T10441094
Observed Flight Rules
Dec-15 @ 12:53 UTC (an hour ago) Marginal Visual Flight Rules
Wind Visibility Clouds Conditions
300° at 12 knots 8 miles
  • Overcast at 2,400' AGL
  • Light Snow
Temperatures Readings Precipitation
Current -4°C / 25°F
Dewpoint -9°C / 16°F
Humidity 69%
Altimeter 29.88" Hg
Pressure 1013.1 hPa
Elevation 219
Current Rain 0.005
METAR KENW 151253Z 30012KT 8SM -SN OVC024 M04/M09 A2988 RMK AO2 SNB39 SLP131 P0000 T10441094
Observed Flight Rules
Dec-15 @ 12:53 UTC
(an hour ago)
MVFR
Wind Visibility
300° at 12 knots 8 miles
Clouds
  • Overcast at 2,400' AGL
Conditions
  • Light Snow
Temperature Dewpoint
-4°C / 25°F -9°C / 16°F
Humidity Altimeter Pressure
69% 29.88" Hg 1013.1 hPa
Current Rain
0.005